Milladore, WI (54454)

9:03 AM CST on February 09, 2016 (GMT -0600)
Blenker, WI | | Change Station
CLOSE
Current Station
Personal Weather Station
Location: Milladore, WI
Elevation: 1191 ft
Nearby Weather Stations

Elev 1191 ft 44.63 °N, 89.91 °W | Updated 2 seconds ago

Snow
Snow
7.3 °F
Feels Like -2 °F
N
4.9
Wind Variable Wind from NNW
Gusts 7.4 mph

Today
High -- | Low -- °F
--% Chance of Precip.
Yesterday
High -- | Low -- °F
Precip. -- in
Pressure 29.94 in
Visibility 5.0 miles
Clouds Overcast 2900 ft
Windchill -2 °F
Dew Point -5 °F
Humidity 56%
Rainfall 0.00 in
Snow Depth Not available.
7:08 AM 5:19 PM
New Moon, 1% visible
METAR KMFI 091454Z AUTO 31018KT 5SM HZ OVC029 M14/M19 A2985 RMK AO2 SNE37 SLP138 P0000 60000 T11441189 51006
Pressure 29.94 in
Visibility 5.0 miles
Clouds Overcast 2900 ft
Windchill -2 °F
Dew Point -5 °F
Humidity 56%
Rainfall 0.00 in
Snow Depth Not available.
7:08 AM 5:19 PM
New Moon, 1% visible
METAR KMFI 091454Z AUTO 31018KT 5SM HZ OVC029 M14/M19 A2985 RMK AO2 SNE37 SLP138 P0000 60000 T11441189 51006

10-Day Weather Forecast

Almanac

Astronomy

Feb. 09, 2016 Rise Set
Actual Time
Civil Twilight
Nautical Twilight
Astronomical Twilight
Moon
Length of Visible Light
Length of Day
Tomorrow will be .
, % of the Moon is Illuminated

Today's Extremes

State Highs State Lows

Community

WunderPhotos

Upload Photos

1,891,616 photos uploaded!

WunderBlog® & News

Nearby

Air Quality

  Air Quality AQ Index Pollutant
Not available.

Snow Depth

Station Depth Elevation

Earthquake Activity

City Distance Mag. Time & Date
Minimum magnitude displayed is 2.5.

Coastal Water Temperatures

Place Temperature

Stations

Nearby Weather Stations

Station Location Temp. Windchill Dew Point Humidity Wind Precip. Elev Updated Type
                   

Watches & Warnings

There are currently no watches in effect.